sensor_id;sensor_type;location;lat;lon;timestamp;temperature;humidity
25346;DHT22;13300;51.032;3.710;2022-11-14T00:02:41;7.30;99.90
25346;DHT22;13300;51.032;3.710;2022-11-14T00:05:50;7.20;99.90
25346;DHT22;13300;51.032;3.710;2022-11-14T00:11:48;7.20;99.90
25346;DHT22;13300;51.032;3.710;2022-11-14T00:15:05;7.30;99.90
25346;DHT22;13300;51.032;3.710;2022-11-14T00:21:28;7.30;99.90
25346;DHT22;13300;51.032;3.710;2022-11-14T00:24:34;7.40;99.90
25346;DHT22;13300;51.032;3.710;2022-11-14T00:30:50;7.50;99.90
25346;DHT22;13300;51.032;3.710;2022-11-14T00:34:03;7.60;99.90
25346;DHT22;13300;51.032;3.710;2022-11-14T00:40:21;7.40;99.90
25346;DHT22;13300;51.032;3.710;2022-11-14T00:47:03;7.40;99.90
25346;DHT22;13300;51.032;3.710;2022-11-14T00:59:23;7.40;99.90
25346;DHT22;13300;51.032;3.710;2022-11-14T01:06:03;7.40;99.90
25346;DHT22;13300;51.032;3.710;2022-11-14T01:11:58;7.30;99.90
25346;DHT22;13300;51.032;3.710;2022-11-14T01:15:12;7.30;99.90
25346;DHT22;13300;51.032;3.710;2022-11-14T01:18:28;7.20;99.90
25346;DHT22;13300;51.032;3.710;2022-11-14T01:21:44;7.20;99.90
25346;DHT22;13300;51.032;3.710;2022-11-14T01:28:09;7.10;99.90
25346;DHT22;13300;51.032;3.710;2022-11-14T01:34:03;6.80;99.90
25346;DHT22;13300;51.032;3.710;2022-11-14T01:40:29;6.50;99.90
25346;DHT22;13300;51.032;3.710;2022-11-14T01:46:44;6.40;99.90
25346;DHT22;13300;51.032;3.710;2022-11-14T01:49:57;6.50;99.90
25346;DHT22;13300;51.032;3.710;2022-11-14T01:56:10;6.60;99.90
25346;DHT22;13300;51.032;3.710;2022-11-14T02:02:23;6.60;99.90
25346;DHT22;13300;51.032;3.710;2022-11-14T02:05:06;6.60;99.90
25346;DHT22;13300;51.032;3.710;2022-11-14T02:08:22;6.60;99.90
25346;DHT22;13300;51.032;3.710;2022-11-14T02:14:14;6.40;99.90
25346;DHT22;13300;51.032;3.710;2022-11-14T02:17:27;6.20;99.90
25346;DHT22;13300;51.032;3.710;2022-11-14T02:20:27;6.10;99.90
25346;DHT22;13300;51.032;3.710;2022-11-14T02:23:39;6.10;99.90
25346;DHT22;13300;51.032;3.710;2022-11-14T02:27:00;6.10;99.90
25346;DHT22;13300;51.032;3.710;2022-11-14T02:29:46;6.20;99.90
25346;DHT22;13300;51.032;3.710;2022-11-14T02:33:06;6.30;99.90
25346;DHT22;13300;51.032;3.710;2022-11-14T02:36:22;6.30;99.90
25346;DHT22;13300;51.032;3.710;2022-11-14T02:39:16;6.20;99.90
25346;DHT22;13300;51.032;3.710;2022-11-14T02:42:03;6.20;99.90
25346;DHT22;13300;51.032;3.710;2022-11-14T02:45:14;6.30;99.90
25346;DHT22;13300;51.032;3.710;2022-11-14T02:48:17;6.30;99.90
25346;DHT22;13300;51.032;3.710;2022-11-14T02:57:46;6.40;99.90
25346;DHT22;13300;51.032;3.710;2022-11-14T03:01:00;6.40;99.90
25346;DHT22;13300;51.032;3.710;2022-11-14T03:03:54;6.40;99.90
25346;DHT22;13300;51.032;3.710;2022-11-14T03:07:20;6.50;99.90
25346;DHT22;13300;51.032;3.710;2022-11-14T03:09:50;6.50;99.90
25346;DHT22;13300;51.032;3.710;2022-11-14T03:13:03;6.50;99.90
25346;DHT22;13300;51.032;3.710;2022-11-14T03:16:22;6.50;99.90
25346;DHT22;13300;51.032;3.710;2022-11-14T03:19:36;6.60;99.90
25346;DHT22;13300;51.032;3.710;2022-11-14T03:22:17;6.40;99.90
25346;DHT22;13300;51.032;3.710;2022-11-14T03:24:51;6.30;99.90
25346;DHT22;13300;51.032;3.710;2022-11-14T03:27:45;6.30;99.90
25346;DHT22;13300;51.032;3.710;2022-11-14T03:30:51;6.20;99.90
25346;DHT22;13300;51.032;3.710;2022-11-14T03:36:29;6.30;99.90
25346;DHT22;13300;51.032;3.710;2022-11-14T03:42:16;6.40;99.90
25346;DHT22;13300;51.032;3.710;2022-11-14T03:45:38;6.20;99.90
25346;DHT22;13300;51.032;3.710;2022-11-14T03:48:33;6.30;99.90
25346;DHT22;13300;51.032;3.710;2022-11-14T03:51:39;6.30;99.90
25346;DHT22;13300;51.032;3.710;2022-11-14T03:54:26;6.30;99.90
25346;DHT22;13300;51.032;3.710;2022-11-14T03:57:36;6.30;99.90
25346;DHT22;13300;51.032;3.710;2022-11-14T04:00:27;6.30;99.90
25346;DHT22;13300;51.032;3.710;2022-11-14T04:03:14;6.30;99.90
25346;DHT22;13300;51.032;3.710;2022-11-14T04:05:51;6.30;99.90
25346;DHT22;13300;51.032;3.710;2022-11-14T04:11:50;6.00;99.90
25346;DHT22;13300;51.032;3.710;2022-11-14T04:20:58;6.00;99.90
25346;DHT22;13300;51.032;3.710;2022-11-14T04:23:51;6.00;99.90
25346;DHT22;13300;51.032;3.710;2022-11-14T04:26:18;6.00;99.90
25346;DHT22;13300;51.032;3.710;2022-11-14T04:28:56;6.20;99.90
25346;DHT22;13300;51.032;3.710;2022-11-14T04:31:28;6.20;99.90
25346;DHT22;13300;51.032;3.710;2022-11-14T04:33:55;6.00;99.90
25346;DHT22;13300;51.032;3.710;2022-11-14T04:36:39;6.00;99.90
25346;DHT22;13300;51.032;3.710;2022-11-14T04:39:06;6.20;99.90
25346;DHT22;13300;51.032;3.710;2022-11-14T04:41:42;6.20;99.90
25346;DHT22;13300;51.032;3.710;2022-11-14T04:44:22;6.20;99.90
25346;DHT22;13300;51.032;3.710;2022-11-14T04:50:05;6.30;99.90
25346;DHT22;13300;51.032;3.710;2022-11-14T04:59:43;6.20;99.90
25346;DHT22;13300;51.032;3.710;2022-11-14T05:02:31;6.20;99.90
25346;DHT22;13300;51.032;3.710;2022-11-14T05:08:12;6.10;99.90
25346;DHT22;13300;51.032;3.710;2022-11-14T05:11:14;6.20;99.90
25346;DHT22;13300;51.032;3.710;2022-11-14T05:13:51;6.20;99.90
25346;DHT22;13300;51.032;3.710;2022-11-14T05:16:24;6.10;99.90
25346;DHT22;13300;51.032;3.710;2022-11-14T05:19:00;6.00;99.90
25346;DHT22;13300;51.032;3.710;2022-11-14T05:21:37;6.00;99.90
25346;DHT22;13300;51.032;3.710;2022-11-14T05:24:10;5.90;99.90
25346;DHT22;13300;51.032;3.710;2022-11-14T05:26:57;6.00;99.90
25346;DHT22;13300;51.032;3.710;2022-11-14T05:29:41;6.10;99.90
25346;DHT22;13300;51.032;3.710;2022-11-14T05:32:48;6.00;99.90
25346;DHT22;13300;51.032;3.710;2022-11-14T05:38:26;5.90;99.90
25346;DHT22;13300;51.032;3.710;2022-11-14T05:41:00;5.70;99.90
25346;DHT22;13300;51.032;3.710;2022-11-14T05:43:50;5.60;99.90
25346;DHT22;13300;51.032;3.710;2022-11-14T05:46:26;5.60;99.90
25346;DHT22;13300;51.032;3.710;2022-11-14T05:49:01;5.60;99.90
25346;DHT22;13300;51.032;3.710;2022-11-14T05:51:28;5.60;99.90
25346;DHT22;13300;51.032;3.710;2022-11-14T05:53:56;5.70;99.90
25346;DHT22;13300;51.032;3.710;2022-11-14T05:56:38;5.70;99.90
25346;DHT22;13300;51.032;3.710;2022-11-14T05:59:31;5.70;99.90
25346;DHT22;13300;51.032;3.710;2022-11-14T06:02:02;5.60;99.90
25346;DHT22;13300;51.032;3.710;2022-11-14T06:04:40;5.60;99.90
25346;DHT22;13300;51.032;3.710;2022-11-14T06:10:49;5.50;99.90
25346;DHT22;13300;51.032;3.710;2022-11-14T06:13:41;5.50;99.90
25346;DHT22;13300;51.032;3.710;2022-11-14T06:16:33;5.50;99.90
25346;DHT22;13300;51.032;3.710;2022-11-14T06:19:04;5.50;99.90
25346;DHT22;13300;51.032;3.710;2022-11-14T06:21:54;5.50;99.90
25346;DHT22;13300;51.032;3.710;2022-11-14T06:24:20;5.40;99.90
25346;DHT22;13300;51.032;3.710;2022-11-14T06:26:55;5.40;99.90
25346;DHT22;13300;51.032;3.710;2022-11-14T06:29:29;5.40;99.90
25346;DHT22;13300;51.032;3.710;2022-11-14T06:40:17;5.40;99.90
25346;DHT22;13300;51.032;3.710;2022-11-14T06:42:43;5.40;99.90
25346;DHT22;13300;51.032;3.710;2022-11-14T06:45:14;5.30;99.90
25346;DHT22;13300;51.032;3.710;2022-11-14T06:47:39;5.30;99.90
25346;DHT22;13300;51.032;3.710;2022-11-14T06:50:08;5.40;99.90
25346;DHT22;13300;51.032;3.710;2022-11-14T06:52:34;5.30;99.90
25346;DHT22;13300;51.032;3.710;2022-11-14T06:55:01;5.30;99.90
25346;DHT22;13300;51.032;3.710;2022-11-14T06:57:26;5.30;99.90
25346;DHT22;13300;51.032;3.710;2022-11-14T07:00:00;5.30;99.90
25346;DHT22;13300;51.032;3.710;2022-11-14T07:02:28;5.40;99.90
25346;DHT22;13300;51.032;3.710;2022-11-14T07:18:01;5.50;99.90
25346;DHT22;13300;51.032;3.710;2022-11-14T07:20:30;5.70;99.90
25346;DHT22;13300;51.032;3.710;2022-11-14T07:22:55;5.70;99.90
25346;DHT22;13300;51.032;3.710;2022-11-14T07:25:21;5.80;99.90
25346;DHT22;13300;51.032;3.710;2022-11-14T07:27:47;5.80;99.90
25346;DHT22;13300;51.032;3.710;2022-11-14T07:30:13;5.90;99.90
25346;DHT22;13300;51.032;3.710;2022-11-14T07:32:39;5.90;99.90
25346;DHT22;13300;51.032;3.710;2022-11-14T07:35:04;6.00;99.90
25346;DHT22;13300;51.032;3.710;2022-11-14T07:37:30;6.40;99.90
25346;DHT22;13300;51.032;3.710;2022-11-14T07:39:56;7.00;99.90
25346;DHT22;13300;51.032;3.710;2022-11-14T07:42:22;7.60;99.90
25346;DHT22;13300;51.032;3.710;2022-11-14T07:44:47;8.30;99.90
25346;DHT22;13300;51.032;3.710;2022-11-14T07:47:13;8.90;99.90
25346;DHT22;13300;51.032;3.710;2022-11-14T07:49:38;9.40;99.90
25346;DHT22;13300;51.032;3.710;2022-11-14T07:52:04;9.90;99.90
25346;DHT22;13300;51.032;3.710;2022-11-14T07:54:30;10.30;99.90
25346;DHT22;13300;51.032;3.710;2022-11-14T07:56:55;10.80;99.90
25346;DHT22;13300;51.032;3.710;2022-11-14T07:59:21;11.00;99.90
25346;DHT22;13300;51.032;3.710;2022-11-14T08:01:46;11.30;99.90
25346;DHT22;13300;51.032;3.710;2022-11-14T08:04:12;11.60;99.90
25346;DHT22;13300;51.032;3.710;2022-11-14T08:06:37;11.80;99.90
25346;DHT22;13300;51.032;3.710;2022-11-14T08:09:03;12.10;99.90
25346;DHT22;13300;51.032;3.710;2022-11-14T08:11:29;12.20;99.90
25346;DHT22;13300;51.032;3.710;2022-11-14T08:14:13;12.80;99.90
25346;DHT22;13300;51.032;3.710;2022-11-14T08:16:38;13.00;99.90
25346;DHT22;13300;51.032;3.710;2022-11-14T08:19:04;13.50;99.90
25346;DHT22;13300;51.032;3.710;2022-11-14T08:21:29;13.70;99.90
25346;DHT22;13300;51.032;3.710;2022-11-14T08:23:55;13.70;99.90
25346;DHT22;13300;51.032;3.710;2022-11-14T08:26:21;13.70;99.90
25346;DHT22;13300;51.032;3.710;2022-11-14T08:28:46;13.90;99.90
25346;DHT22;13300;51.032;3.710;2022-11-14T08:31:12;14.20;99.90
25346;DHT22;13300;51.032;3.710;2022-11-14T08:33:38;14.80;99.90
25346;DHT22;13300;51.032;3.710;2022-11-14T08:36:04;15.20;99.90
25346;DHT22;13300;51.032;3.710;2022-11-14T08:38:32;15.50;99.90
25346;DHT22;13300;51.032;3.710;2022-11-14T08:40:58;15.60;99.90
25346;DHT22;13300;51.032;3.710;2022-11-14T08:43:24;15.20;99.90
25346;DHT22;13300;51.032;3.710;2022-11-14T08:45:50;15.00;99.90
25346;DHT22;13300;51.032;3.710;2022-11-14T08:48:16;15.10;99.90
25346;DHT22;13300;51.032;3.710;2022-11-14T08:50:42;15.20;99.90
25346;DHT22;13300;51.032;3.710;2022-11-14T08:53:07;15.70;99.90
25346;DHT22;13300;51.032;3.710;2022-11-14T08:55:33;15.70;99.90
25346;DHT22;13300;51.032;3.710;2022-11-14T08:57:59;15.90;99.90
25346;DHT22;13300;51.032;3.710;2022-11-14T09:00:24;15.60;99.90
25346;DHT22;13300;51.032;3.710;2022-11-14T09:02:50;13.60;99.90
25346;DHT22;13300;51.032;3.710;2022-11-14T09:05:16;14.20;99.90
25346;DHT22;13300;51.032;3.710;2022-11-14T09:07:41;14.90;99.90
25346;DHT22;13300;51.032;3.710;2022-11-14T09:10:07;14.90;99.90
25346;DHT22;13300;51.032;3.710;2022-11-14T09:12:33;14.60;99.90
25346;DHT22;13300;51.032;3.710;2022-11-14T09:14:58;15.00;99.90
25346;DHT22;13300;51.032;3.710;2022-11-14T09:17:24;15.20;99.90
25346;DHT22;13300;51.032;3.710;2022-11-14T09:19:49;15.50;99.90
25346;DHT22;13300;51.032;3.710;2022-11-14T09:22:15;15.20;99.90
25346;DHT22;13300;51.032;3.710;2022-11-14T09:24:41;14.90;99.90
25346;DHT22;13300;51.032;3.710;2022-11-14T09:27:07;14.40;99.90
25346;DHT22;13300;51.032;3.710;2022-11-14T09:29:32;15.00;99.90
25346;DHT22;13300;51.032;3.710;2022-11-14T09:31:58;15.20;99.90
25346;DHT22;13300;51.032;3.710;2022-11-14T09:34:24;15.00;99.90
25346;DHT22;13300;51.032;3.710;2022-11-14T09:36:49;15.60;99.90
25346;DHT22;13300;51.032;3.710;2022-11-14T09:39:15;15.40;99.90
25346;DHT22;13300;51.032;3.710;2022-11-14T09:46:55;15.30;99.90
25346;DHT22;13300;51.032;3.710;2022-11-14T09:49:24;15.10;99.90
25346;DHT22;13300;51.032;3.710;2022-11-14T09:51:51;15.90;99.90
25346;DHT22;13300;51.032;3.710;2022-11-14T09:54:22;15.60;99.90
25346;DHT22;13300;51.032;3.710;2022-11-14T09:56:51;15.40;99.90
25346;DHT22;13300;51.032;3.710;2022-11-14T09:59:16;15.60;99.90
25346;DHT22;13300;51.032;3.710;2022-11-14T10:12:21;16.30;99.90
25346;DHT22;13300;51.032;3.710;2022-11-14T10:27:42;16.70;99.90
25346;DHT22;13300;51.032;3.710;2022-11-14T10:30:11;17.60;99.90
25346;DHT22;13300;51.032;3.710;2022-11-14T10:35:22;18.50;99.90
25346;DHT22;13300;51.032;3.710;2022-11-14T10:40:15;18.30;99.90
25346;DHT22;13300;51.032;3.710;2022-11-14T10:42:43;18.10;99.90
25346;DHT22;13300;51.032;3.710;2022-11-14T10:47:39;18.60;99.90
25346;DHT22;13300;51.032;3.710;2022-11-14T10:50:18;18.30;99.90
25346;DHT22;13300;51.032;3.710;2022-11-14T10:52:44;18.10;99.90
25346;DHT22;13300;51.032;3.710;2022-11-14T10:55:15;18.10;99.90
25346;DHT22;13300;51.032;3.710;2022-11-14T10:57:41;17.90;99.90
25346;DHT22;13300;51.032;3.710;2022-11-14T11:00:10;18.00;99.90
25346;DHT22;13300;51.032;3.710;2022-11-14T11:02:46;18.40;99.90
25346;DHT22;13300;51.032;3.710;2022-11-14T11:05:16;18.40;99.90
25346;DHT22;13300;51.032;3.710;2022-11-14T11:07:46;17.20;99.90
25346;DHT22;13300;51.032;3.710;2022-11-14T11:10:31;16.40;99.90
25346;DHT22;13300;51.032;3.710;2022-11-14T11:13:26;16.10;99.90
25346;DHT22;13300;51.032;3.710;2022-11-14T11:15:54;15.70;99.90
25346;DHT22;13300;51.032;3.710;2022-11-14T11:21:22;16.20;99.90
25346;DHT22;13300;51.032;3.710;2022-11-14T11:26:16;14.10;99.90
25346;DHT22;13300;51.032;3.710;2022-11-14T11:28:42;13.20;99.90
25346;DHT22;13300;51.032;3.710;2022-11-14T11:31:08;13.20;99.90
25346;DHT22;13300;51.032;3.710;2022-11-14T11:33:35;13.20;99.90
25346;DHT22;13300;51.032;3.710;2022-11-14T11:36:02;12.50;99.90
25346;DHT22;13300;51.032;3.710;2022-11-14T11:38:29;12.00;99.90
25346;DHT22;13300;51.032;3.710;2022-11-14T11:40:58;11.20;99.90
25346;DHT22;13300;51.032;3.710;2022-11-14T11:43:47;11.10;99.90
25346;DHT22;13300;51.032;3.710;2022-11-14T11:46:11;10.90;99.90
25346;DHT22;13300;51.032;3.710;2022-11-14T11:48:39;10.60;99.90
25346;DHT22;13300;51.032;3.710;2022-11-14T11:51:05;10.20;99.90
25346;DHT22;13300;51.032;3.710;2022-11-14T11:53:46;9.80;99.90
25346;DHT22;13300;51.032;3.710;2022-11-14T11:56:14;9.90;99.90
25346;DHT22;13300;51.032;3.710;2022-11-14T11:58:46;10.20;99.90
25346;DHT22;13300;51.032;3.710;2022-11-14T12:01:12;9.70;99.90
25346;DHT22;13300;51.032;3.710;2022-11-14T12:03:38;9.50;99.90
25346;DHT22;13300;51.032;3.710;2022-11-14T12:06:15;9.00;99.90
25346;DHT22;13300;51.032;3.710;2022-11-14T12:11:13;8.70;99.90
25346;DHT22;13300;51.032;3.710;2022-11-14T12:19:22;8.00;99.90
25346;DHT22;13300;51.032;3.710;2022-11-14T12:32:26;7.70;99.90
25346;DHT22;13300;51.032;3.710;2022-11-14T12:34:53;7.50;99.90
25346;DHT22;13300;51.032;3.710;2022-11-14T12:37:30;7.70;99.90
25346;DHT22;13300;51.032;3.710;2022-11-14T12:40:06;7.60;99.90
25346;DHT22;13300;51.032;3.710;2022-11-14T12:42:32;7.60;99.90
25346;DHT22;13300;51.032;3.710;2022-11-14T12:45:01;7.70;99.90
25346;DHT22;13300;51.032;3.710;2022-11-14T12:47:34;7.40;99.90
25346;DHT22;13300;51.032;3.710;2022-11-14T12:50:00;7.40;99.90
25346;DHT22;13300;51.032;3.710;2022-11-14T12:58:06;7.30;99.90
25346;DHT22;13300;51.032;3.710;2022-11-14T13:00:33;7.30;99.90
25346;DHT22;13300;51.032;3.710;2022-11-14T13:03:09;7.00;99.90
25346;DHT22;13300;51.032;3.710;2022-11-14T13:05:42;7.10;99.90
25346;DHT22;13300;51.032;3.710;2022-11-14T13:10:55;7.00;99.90
25346;DHT22;13300;51.032;3.710;2022-11-14T13:13:21;6.80;99.90
25346;DHT22;13300;51.032;3.710;2022-11-14T13:16:05;6.80;99.90
25346;DHT22;13300;51.032;3.710;2022-11-14T13:21:33;6.80;99.90
25346;DHT22;13300;51.032;3.710;2022-11-14T13:24:17;6.90;99.90
25346;DHT22;13300;51.032;3.710;2022-11-14T13:26:44;6.90;99.90
25346;DHT22;13300;51.032;3.710;2022-11-14T13:31:57;6.90;99.90
25346;DHT22;13300;51.032;3.710;2022-11-14T13:34:31;7.00;99.90
25346;DHT22;13300;51.032;3.710;2022-11-14T13:37:04;7.00;99.90
25346;DHT22;13300;51.032;3.710;2022-11-14T13:47:33;7.00;99.90
25346;DHT22;13300;51.032;3.710;2022-11-14T13:50:07;6.90;99.90
25346;DHT22;13300;51.032;3.710;2022-11-14T13:52:45;7.00;99.90
25346;DHT22;13300;51.032;3.710;2022-11-14T13:55:22;6.80;99.90
25346;DHT22;13300;51.032;3.710;2022-11-14T14:00:14;7.00;99.90
25346;DHT22;13300;51.032;3.710;2022-11-14T14:05:33;7.20;99.90
25346;DHT22;13300;51.032;3.710;2022-11-14T14:13:16;7.10;99.90
25346;DHT22;13300;51.032;3.710;2022-11-14T14:18:36;6.80;99.90
25346;DHT22;13300;51.032;3.710;2022-11-14T14:21:26;6.80;99.90
25346;DHT22;13300;51.032;3.710;2022-11-14T14:24:02;6.90;99.90
25346;DHT22;13300;51.032;3.710;2022-11-14T14:26:51;6.90;99.90
25346;DHT22;13300;51.032;3.710;2022-11-14T14:29:27;6.80;99.90
25346;DHT22;13300;51.032;3.710;2022-11-14T14:32:10;6.70;99.90
25346;DHT22;13300;51.032;3.710;2022-11-14T14:34:39;6.80;99.90
25346;DHT22;13300;51.032;3.710;2022-11-14T14:37:22;6.70;99.90
25346;DHT22;13300;51.032;3.710;2022-11-14T14:39:55;6.70;99.90
25346;DHT22;13300;51.032;3.710;2022-11-14T14:42:21;6.60;99.90
25346;DHT22;13300;51.032;3.710;2022-11-14T14:44:47;6.80;99.90
25346;DHT22;13300;51.032;3.710;2022-11-14T14:47:33;6.90;99.90
25346;DHT22;13300;51.032;3.710;2022-11-14T14:50:03;6.80;99.90
25346;DHT22;13300;51.032;3.710;2022-11-14T14:54:58;6.80;99.90
25346;DHT22;13300;51.032;3.710;2022-11-14T14:57:26;6.70;99.90
25346;DHT22;13300;51.032;3.710;2022-11-14T15:00:06;6.60;99.90
25346;DHT22;13300;51.032;3.710;2022-11-14T15:02:32;6.50;99.90
25346;DHT22;13300;51.032;3.710;2022-11-14T15:04:58;6.60;99.90
25346;DHT22;13300;51.032;3.710;2022-11-14T15:07:27;6.80;99.90
25346;DHT22;13300;51.032;3.710;2022-11-14T15:09:59;6.80;99.90
25346;DHT22;13300;51.032;3.710;2022-11-14T15:12:26;6.50;99.90
25346;DHT22;13300;51.032;3.710;2022-11-14T15:14:55;6.60;99.90
25346;DHT22;13300;51.032;3.710;2022-11-14T15:17:21;6.60;99.90
25346;DHT22;13300;51.032;3.710;2022-11-14T15:19:48;6.50;99.90
25346;DHT22;13300;51.032;3.710;2022-11-14T15:24:40;6.60;99.90
25346;DHT22;13300;51.032;3.710;2022-11-14T15:27:12;6.70;99.90
25346;DHT22;13300;51.032;3.710;2022-11-14T15:29:46;6.60;99.90
25346;DHT22;13300;51.032;3.710;2022-11-14T15:32:16;6.60;99.90
25346;DHT22;13300;51.032;3.710;2022-11-14T15:34:42;6.60;99.90
25346;DHT22;13300;51.032;3.710;2022-11-14T15:39:43;6.70;99.90
25346;DHT22;13300;51.032;3.710;2022-11-14T15:44:45;6.80;99.90
25346;DHT22;13300;51.032;3.710;2022-11-14T15:47:11;6.90;99.90
25346;DHT22;13300;51.032;3.710;2022-11-14T15:49:38;7.00;99.90
25346;DHT22;13300;51.032;3.710;2022-11-14T15:52:12;6.90;99.90
25346;DHT22;13300;51.032;3.710;2022-11-14T15:54:44;6.80;99.90
25346;DHT22;13300;51.032;3.710;2022-11-14T15:57:14;6.90;99.90
25346;DHT22;13300;51.032;3.710;2022-11-14T15:59:41;6.90;99.90
25346;DHT22;13300;51.032;3.710;2022-11-14T16:02:17;6.80;99.90
25346;DHT22;13300;51.032;3.710;2022-11-14T16:04:43;6.70;99.90
25346;DHT22;13300;51.032;3.710;2022-11-14T16:07:12;6.80;99.90
25346;DHT22;13300;51.032;3.710;2022-11-14T16:09:38;6.80;99.90
25346;DHT22;13300;51.032;3.710;2022-11-14T16:12:04;6.80;99.90
25346;DHT22;13300;51.032;3.710;2022-11-14T16:14:30;7.00;99.90
25346;DHT22;13300;51.032;3.710;2022-11-14T16:16:55;7.00;99.90
25346;DHT22;13300;51.032;3.710;2022-11-14T16:19:21;7.00;99.90
25346;DHT22;13300;51.032;3.710;2022-11-14T16:21:47;6.90;99.90
25346;DHT22;13300;51.032;3.710;2022-11-14T16:24:14;7.00;99.90
25346;DHT22;13300;51.032;3.710;2022-11-14T16:26:40;7.10;99.90
25346;DHT22;13300;51.032;3.710;2022-11-14T16:29:05;7.10;99.90
25346;DHT22;13300;51.032;3.710;2022-11-14T16:31:32;7.00;99.90
25346;DHT22;13300;51.032;3.710;2022-11-14T16:33:58;7.00;99.90
25346;DHT22;13300;51.032;3.710;2022-11-14T16:36:23;6.90;99.90
25346;DHT22;13300;51.032;3.710;2022-11-14T16:38:51;7.00;99.90
25346;DHT22;13300;51.032;3.710;2022-11-14T16:41:20;6.90;99.90
25346;DHT22;13300;51.032;3.710;2022-11-14T16:48:52;7.00;99.90
25346;DHT22;13300;51.032;3.710;2022-11-14T16:56:29;7.20;99.90
25346;DHT22;13300;51.032;3.710;2022-11-14T16:58:55;7.30;99.90
25346;DHT22;13300;51.032;3.710;2022-11-14T17:01:21;7.20;99.90
25346;DHT22;13300;51.032;3.710;2022-11-14T17:03:47;7.10;99.90
25346;DHT22;13300;51.032;3.710;2022-11-14T17:06:12;7.00;99.90
25346;DHT22;13300;51.032;3.710;2022-11-14T17:08:38;7.10;99.90
25346;DHT22;13300;51.032;3.710;2022-11-14T17:11:08;7.20;99.90
25346;DHT22;13300;51.032;3.710;2022-11-14T17:13:34;7.30;99.90
25346;DHT22;13300;51.032;3.710;2022-11-14T17:16:06;7.40;99.90
25346;DHT22;13300;51.032;3.710;2022-11-14T17:18:37;7.50;99.90
25346;DHT22;13300;51.032;3.710;2022-11-14T17:21:05;7.40;99.90
25346;DHT22;13300;51.032;3.710;2022-11-14T17:23:33;7.20;99.90
25346;DHT22;13300;51.032;3.710;2022-11-14T17:26:01;7.30;99.90
25346;DHT22;13300;51.032;3.710;2022-11-14T17:28:27;7.30;99.90
25346;DHT22;13300;51.032;3.710;2022-11-14T17:30:53;7.30;99.90
25346;DHT22;13300;51.032;3.710;2022-11-14T17:33:18;7.30;99.90
25346;DHT22;13300;51.032;3.710;2022-11-14T17:35:44;7.40;99.90
25346;DHT22;13300;51.032;3.710;2022-11-14T17:38:12;7.40;99.90
25346;DHT22;13300;51.032;3.710;2022-11-14T17:40:37;7.40;99.90
25346;DHT22;13300;51.032;3.710;2022-11-14T17:43:03;7.40;99.90
25346;DHT22;13300;51.032;3.710;2022-11-14T17:45:53;7.40;99.90
25346;DHT22;13300;51.032;3.710;2022-11-14T17:48:19;7.40;99.90
25346;DHT22;13300;51.032;3.710;2022-11-14T17:50:44;7.50;99.90
25346;DHT22;13300;51.032;3.710;2022-11-14T17:53:10;7.40;99.90
25346;DHT22;13300;51.032;3.710;2022-11-14T17:55:36;7.50;99.90
25346;DHT22;13300;51.032;3.710;2022-11-14T17:58:04;7.50;99.90
25346;DHT22;13300;51.032;3.710;2022-11-14T18:00:30;7.70;99.90
25346;DHT22;13300;51.032;3.710;2022-11-14T18:02:55;7.80;99.90
25346;DHT22;13300;51.032;3.710;2022-11-14T18:05:21;7.80;99.90
25346;DHT22;13300;51.032;3.710;2022-11-14T18:07:47;7.80;99.90
25346;DHT22;13300;51.032;3.710;2022-11-14T18:10:12;7.90;99.90
25346;DHT22;13300;51.032;3.710;2022-11-14T18:12:38;7.60;99.90
25346;DHT22;13300;51.032;3.710;2022-11-14T18:15:04;7.70;99.90
25346;DHT22;13300;51.032;3.710;2022-11-14T18:17:30;7.80;99.90
25346;DHT22;13300;51.032;3.710;2022-11-14T18:19:56;7.70;99.90
25346;DHT22;13300;51.032;3.710;2022-11-14T18:22:24;7.70;99.90
25346;DHT22;13300;51.032;3.710;2022-11-14T18:24:51;7.80;99.90
25346;DHT22;13300;51.032;3.710;2022-11-14T18:27:17;7.90;99.90
25346;DHT22;13300;51.032;3.710;2022-11-14T18:29:43;7.80;99.90
25346;DHT22;13300;51.032;3.710;2022-11-14T18:32:08;7.80;99.90
25346;DHT22;13300;51.032;3.710;2022-11-14T18:34:34;7.90;99.90
25346;DHT22;13300;51.032;3.710;2022-11-14T18:37:05;7.90;99.90
25346;DHT22;13300;51.032;3.710;2022-11-14T18:39:30;7.90;99.90
25346;DHT22;13300;51.032;3.710;2022-11-14T18:41:56;8.00;99.90
25346;DHT22;13300;51.032;3.710;2022-11-14T18:44:24;7.90;99.90
25346;DHT22;13300;51.032;3.710;2022-11-14T18:46:50;7.90;99.90
25346;DHT22;13300;51.032;3.710;2022-11-14T18:49:16;8.00;99.90
25346;DHT22;13300;51.032;3.710;2022-11-14T18:51:42;8.00;99.90
25346;DHT22;13300;51.032;3.710;2022-11-14T18:54:13;8.00;99.90
25346;DHT22;13300;51.032;3.710;2022-11-14T18:56:40;8.10;99.90
25346;DHT22;13300;51.032;3.710;2022-11-14T18:59:09;8.00;99.90
25346;DHT22;13300;51.032;3.710;2022-11-14T19:01:34;8.00;99.90
25346;DHT22;13300;51.032;3.710;2022-11-14T19:04:03;8.10;99.90
25346;DHT22;13300;51.032;3.710;2022-11-14T19:06:31;8.10;99.90
25346;DHT22;13300;51.032;3.710;2022-11-14T19:09:07;8.10;99.90
25346;DHT22;13300;51.032;3.710;2022-11-14T19:11:35;8.00;99.90
25346;DHT22;13300;51.032;3.710;2022-11-14T19:14:22;8.10;99.90
25346;DHT22;13300;51.032;3.710;2022-11-14T19:16:51;8.30;99.90
25346;DHT22;13300;51.032;3.710;2022-11-14T19:19:17;8.30;99.90
25346;DHT22;13300;51.032;3.710;2022-11-14T19:21:43;8.20;99.90
25346;DHT22;13300;51.032;3.710;2022-11-14T19:24:08;8.20;99.90
25346;DHT22;13300;51.032;3.710;2022-11-14T19:26:34;8.30;99.90
25346;DHT22;13300;51.032;3.710;2022-11-14T19:29:03;8.30;99.90
25346;DHT22;13300;51.032;3.710;2022-11-14T19:31:29;8.30;99.90
25346;DHT22;13300;51.032;3.710;2022-11-14T19:33:55;8.40;99.90
25346;DHT22;13300;51.032;3.710;2022-11-14T19:36:21;8.30;99.90
25346;DHT22;13300;51.032;3.710;2022-11-14T19:38:52;8.50;99.90
25346;DHT22;13300;51.032;3.710;2022-11-14T19:41:18;8.60;99.90
25346;DHT22;13300;51.032;3.710;2022-11-14T19:43:47;8.60;99.90
25346;DHT22;13300;51.032;3.710;2022-11-14T19:46:14;8.50;99.90
25346;DHT22;13300;51.032;3.710;2022-11-14T19:48:45;8.30;99.90
25346;DHT22;13300;51.032;3.710;2022-11-14T19:51:12;8.30;99.90
25346;DHT22;13300;51.032;3.710;2022-11-14T19:53:44;8.30;99.90
25346;DHT22;13300;51.032;3.710;2022-11-14T19:56:12;8.30;99.90
25346;DHT22;13300;51.032;3.710;2022-11-14T19:58:38;8.40;99.90
25346;DHT22;13300;51.032;3.710;2022-11-14T20:01:09;8.50;99.90
25346;DHT22;13300;51.032;3.710;2022-11-14T20:03:34;8.60;99.90
25346;DHT22;13300;51.032;3.710;2022-11-14T20:06:00;8.80;99.90
25346;DHT22;13300;51.032;3.710;2022-11-14T20:08:26;8.60;99.90
25346;DHT22;13300;51.032;3.710;2022-11-14T20:10:59;8.80;99.90
25346;DHT22;13300;51.032;3.710;2022-11-14T20:13:32;9.10;99.90
25346;DHT22;13300;51.032;3.710;2022-11-14T20:15:58;9.10;99.90
25346;DHT22;13300;51.032;3.710;2022-11-14T20:18:24;8.90;99.90
25346;DHT22;13300;51.032;3.710;2022-11-14T20:20:53;8.90;99.90
25346;DHT22;13300;51.032;3.710;2022-11-14T20:23:26;9.10;99.90
25346;DHT22;13300;51.032;3.710;2022-11-14T20:25:55;9.30;99.90